createdAt,value
2023-02-23T00:01:09.742Z,32.83
2023-02-23T00:03:41.872Z,31.35
2023-02-23T00:06:13.707Z,31.90
2023-02-23T00:08:47.944Z,31.30
2023-02-23T00:11:21.354Z,35.13
2023-02-23T00:13:53.660Z,30.98
2023-02-23T00:16:26.401Z,26.83
2023-02-23T00:19:00.517Z,30.55
2023-02-23T00:21:34.834Z,30.02
2023-02-23T00:24:09.386Z,29.63
2023-02-23T00:26:45.331Z,39.30
2023-02-23T00:29:20.744Z,30.02
2023-02-23T00:31:52.619Z,32.95
2023-02-23T00:34:24.412Z,34.45
2023-02-23T00:36:56.100Z,29.58
2023-02-23T00:39:29.361Z,29.75
2023-02-23T00:42:03.346Z,29.60
2023-02-23T00:44:35.376Z,30.98
2023-02-23T00:47:08.068Z,32.53
2023-02-23T00:49:39.791Z,29.52
2023-02-23T00:52:14.392Z,29.63
2023-02-23T00:54:46.228Z,32.70
2023-02-23T00:57:20.657Z,30.40
2023-02-23T00:59:54.404Z,27.67
2023-02-23T01:02:30.678Z,34.45
2023-02-23T01:05:02.453Z,30.48
2023-02-23T01:07:36.246Z,33.47
2023-02-23T01:10:19.300Z,31.60
2023-02-23T01:12:54.634Z,31.17
2023-02-23T01:15:28.123Z,33.08
2023-02-23T01:17:59.874Z,31.10
2023-02-23T01:20:36.133Z,29.05
2023-02-23T01:23:10.836Z,27.98
2023-02-23T01:25:45.070Z,31.90
2023-02-23T01:28:16.955Z,27.00
2023-02-23T01:30:48.974Z,29.35
2023-02-23T01:33:20.749Z,32.33
2023-02-23T01:35:59.574Z,30.65
2023-02-23T01:38:31.298Z,28.92
2023-02-23T01:41:03.041Z,29.25
2023-02-23T01:43:37.061Z,30.73
2023-02-23T01:46:08.919Z,29.30
2023-02-23T01:48:40.689Z,29.60
2023-02-23T01:51:21.301Z,33.53
2023-02-23T01:54:15.952Z,30.40
2023-02-23T01:56:58.217Z,29.50
2023-02-23T01:59:39.912Z,31.83
2023-02-23T02:02:13.831Z,32.45
2023-02-23T02:04:46.291Z,29.90
2023-02-23T02:07:26.779Z,31.50
2023-02-23T02:10:11.637Z,29.88
2023-02-23T02:12:54.688Z,29.45
2023-02-23T02:15:32.770Z,31.17
2023-02-23T02:18:19.319Z,30.50
2023-02-23T02:21:11.658Z,33.15
2023-02-23T02:24:29.679Z,30.85
2023-02-23T02:27:12.207Z,31.85
2023-02-23T02:29:59.091Z,30.38
2023-02-23T02:32:33.728Z,30.52
2023-02-23T02:35:19.001Z,29.27
2023-02-23T02:38:12.499Z,34.60
2023-02-23T02:40:57.454Z,28.65
2023-02-23T02:43:39.600Z,31.85
2023-02-23T02:46:20.307Z,33.80
2023-02-23T02:49:10.718Z,34.45
2023-02-23T02:51:49.148Z,30.52
2023-02-23T02:54:36.972Z,31.58
2023-02-23T02:57:10.629Z,29.33
2023-02-23T03:00:06.675Z,29.67
2023-02-23T03:02:59.408Z,32.35
2023-02-23T03:06:03.798Z,31.83
2023-02-23T03:09:21.563Z,34.13
2023-02-23T03:12:25.992Z,33.60
2023-02-23T03:15:36.232Z,31.70
2023-02-23T03:18:35.335Z,34.03
2023-02-23T03:21:35.205Z,29.65
2023-02-23T03:25:15.737Z,35.13
2023-02-23T03:28:25.423Z,34.30
2023-02-23T03:31:21.954Z,32.40
2023-02-23T03:34:38.657Z,33.22
2023-02-23T03:38:00.356Z,29.73
2023-02-23T03:40:57.781Z,32.35
2023-02-23T03:43:53.570Z,33.85
2023-02-23T03:46:47.860Z,32.35
2023-02-23T03:49:41.042Z,32.58
2023-02-23T03:52:38.397Z,32.55
2023-02-23T03:55:37.163Z,29.73
2023-02-23T03:58:32.503Z,34.10
2023-02-23T04:01:28.968Z,35.95
2023-02-23T04:04:20.209Z,32.90
2023-02-23T04:07:14.823Z,37.15
2023-02-23T04:10:04.982Z,34.78
2023-02-23T04:13:15.518Z,35.13
2023-02-23T04:15:58.114Z,35.40
2023-02-23T04:18:33.157Z,32.53
2023-02-23T04:21:06.103Z,32.97
2023-02-23T04:23:40.762Z,35.15
2023-02-23T04:26:16.448Z,33.08
2023-02-23T04:28:48.084Z,32.75
2023-02-23T04:31:22.188Z,38.08
2023-02-23T04:33:55.210Z,34.05
2023-02-23T04:36:26.947Z,34.30
2023-02-23T04:38:58.624Z,38.40
2023-02-23T04:41:30.277Z,37.15
2023-02-23T04:44:01.997Z,37.53
2023-02-23T04:46:33.695Z,33.92
2023-02-23T04:49:05.348Z,39.67
2023-02-23T04:51:37.466Z,36.28
2023-02-23T04:54:09.826Z,42.83
2023-02-23T04:56:41.602Z,44.53
2023-02-23T04:59:16.109Z,45.70
2023-02-23T05:01:50.451Z,52.47
2023-02-23T05:04:22.121Z,47.78
2023-02-23T05:06:53.836Z,49.13
2023-02-23T05:09:25.615Z,46.55
2023-02-23T05:11:57.332Z,53.17
2023-02-23T05:14:31.111Z,49.13
2023-02-23T05:17:02.790Z,44.97
2023-02-23T05:19:34.499Z,47.63
2023-02-23T05:22:12.524Z,44.33
2023-02-23T05:24:44.220Z,46.15
2023-02-23T05:27:18.855Z,44.03
2023-02-23T05:29:50.524Z,46.67
2023-02-23T05:32:22.803Z,45.65
2023-02-23T05:34:57.027Z,44.08
2023-02-23T05:37:28.824Z,43.65
2023-02-23T05:40:00.980Z,39.80
2023-02-23T05:42:35.186Z,43.65
2023-02-23T05:45:07.652Z,31.70
2023-02-23T05:47:39.432Z,45.00
2023-02-23T05:50:12.594Z,41.58
2023-02-23T05:52:45.174Z,37.42
2023-02-23T05:55:17.096Z,39.78
2023-02-23T05:57:49.646Z,41.75
2023-02-23T06:00:22.067Z,47.53
2023-02-23T06:02:54.293Z,59.03
2023-02-23T06:05:26.138Z,67.00
2023-02-23T06:07:59.244Z,65.32
2023-02-23T06:10:30.917Z,54.83
2023-02-23T06:13:03.562Z,48.30
2023-02-23T06:15:37.425Z,40.90
2023-02-23T06:18:09.635Z,43.88
2023-02-23T06:20:41.336Z,42.40
2023-02-23T06:23:13.994Z,45.95
2023-02-23T06:25:48.946Z,49.05
2023-02-23T06:28:20.821Z,47.83
2023-02-23T06:30:55.061Z,53.08
2023-02-23T06:33:26.932Z,45.63
2023-02-23T06:35:59.647Z,51.55
2023-02-23T06:38:31.502Z,50.88
2023-02-23T06:41:10.646Z,52.38
2023-02-23T06:43:42.410Z,54.75
2023-02-23T06:46:14.055Z,51.42
2023-02-23T06:48:45.744Z,51.17
2023-02-23T06:51:17.819Z,54.25
2023-02-23T06:53:49.824Z,53.47
2023-02-23T06:56:21.881Z,49.13
2023-02-23T06:58:53.612Z,51.15
2023-02-23T07:01:25.278Z,79.38
2023-02-23T07:03:57.007Z,55.17
2023-02-23T07:06:29.118Z,50.15
2023-02-23T07:09:01.008Z,55.97
2023-02-23T07:11:32.738Z,51.00
2023-02-23T07:14:04.500Z,43.65
2023-02-23T07:16:36.897Z,41.08
2023-02-23T07:19:08.910Z,52.28
2023-02-23T07:21:40.574Z,45.00
2023-02-23T07:24:12.403Z,40.08
2023-02-23T07:26:47.344Z,40.88
2023-02-23T07:29:26.260Z,39.05
2023-02-23T07:31:58.033Z,42.72
2023-02-23T07:34:29.807Z,48.83
2023-02-23T07:37:01.543Z,46.50
2023-02-23T07:39:33.243Z,47.55
2023-02-23T07:42:05.030Z,46.90
2023-02-23T07:44:38.196Z,45.45
2023-02-23T07:47:10.856Z,34.97
2023-02-23T07:49:42.794Z,31.33
2023-02-23T07:52:18.459Z,29.23
2023-02-23T07:54:52.985Z,28.20
2023-02-23T07:57:25.194Z,30.67
2023-02-23T07:59:56.879Z,37.35
2023-02-23T08:02:32.946Z,31.58
2023-02-23T08:05:06.205Z,33.10
2023-02-23T08:07:37.903Z,27.83
2023-02-23T08:10:10.298Z,27.98
2023-02-23T08:12:41.998Z,20.33
2023-02-23T08:15:13.926Z,29.55
2023-02-23T08:17:45.628Z,21.48
2023-02-23T08:20:17.520Z,21.30
2023-02-23T08:22:54.510Z,19.73
2023-02-23T08:25:29.465Z,21.73
2023-02-23T08:28:04.753Z,21.95
2023-02-23T08:30:36.791Z,22.13
2023-02-23T08:33:11.368Z,20.95
2023-02-23T08:38:16.610Z,20.73
2023-02-23T08:40:48.354Z,19.55
2023-02-23T08:43:19.981Z,20.80
2023-02-23T08:45:54.547Z,18.52
2023-02-23T08:48:26.470Z,20.83
2023-02-23T08:50:59.497Z,21.38
2023-02-23T08:53:32.411Z,17.30
2023-02-23T08:56:08.121Z,22.88
2023-02-23T08:58:39.862Z,14.65
2023-02-23T09:01:18.574Z,14.57
2023-02-23T09:03:50.479Z,16.45
2023-02-23T09:06:25.503Z,41.70
2023-02-23T09:08:57.270Z,34.05
2023-02-23T09:11:28.978Z,42.10
2023-02-23T09:14:03.576Z,39.42
2023-02-23T09:16:36.450Z,39.92
2023-02-23T09:19:08.135Z,38.60
2023-02-23T09:21:40.470Z,42.60
2023-02-23T09:24:12.165Z,27.75
2023-02-23T09:26:45.838Z,43.10
2023-02-23T09:29:17.702Z,38.63
2023-02-23T09:31:52.913Z,35.83
2023-02-23T09:34:24.871Z,38.95
2023-02-23T09:36:56.724Z,27.33
2023-02-23T09:39:37.688Z,35.70
2023-02-23T09:42:42.797Z,33.13
2023-02-23T09:45:31.077Z,33.35
2023-02-23T09:48:13.983Z,41.50
2023-02-23T09:50:50.190Z,39.25
2023-02-23T09:53:33.441Z,35.70
2023-02-23T09:56:17.947Z,17.88
2023-02-23T09:58:50.909Z,20.83
2023-02-23T10:01:48.569Z,18.55
2023-02-23T10:04:28.876Z,15.73
2023-02-23T10:07:21.094Z,16.92
2023-02-23T10:10:07.819Z,16.17
2023-02-23T10:12:54.163Z,18.23
2023-02-23T10:15:55.538Z,16.02
2023-02-23T10:18:46.473Z,17.27
2023-02-23T10:21:30.455Z,21.48
2023-02-23T10:24:10.520Z,17.13
2023-02-23T10:26:54.236Z,15.60
2023-02-23T10:29:34.883Z,17.17
2023-02-23T10:32:18.412Z,17.45
2023-02-23T10:34:54.556Z,15.82
2023-02-23T10:37:26.643Z,15.88
2023-02-23T10:39:58.470Z,15.82
2023-02-23T10:42:31.861Z,15.23
2023-02-23T10:45:03.688Z,14.65
2023-02-23T10:47:36.307Z,17.15
2023-02-23T10:50:10.915Z,17.48
2023-02-23T10:55:30.435Z,15.85
2023-02-23T10:58:20.681Z,16.98
2023-02-23T11:00:58.598Z,16.33
2023-02-23T11:03:36.188Z,15.27
2023-02-23T11:06:39.662Z,15.07
2023-02-23T11:09:45.607Z,14.00
2023-02-23T11:12:39.636Z,16.23
2023-02-23T11:15:22.552Z,16.48
2023-02-23T11:17:59.379Z,16.70
2023-02-23T11:20:38.554Z,17.20
2023-02-23T11:23:34.054Z,15.38
2023-02-23T11:26:35.211Z,16.90
2023-02-23T11:29:35.330Z,18.05
2023-02-23T11:32:10.223Z,17.50
2023-02-23T11:34:43.752Z,17.65
2023-02-23T11:37:20.239Z,19.08
2023-02-23T11:39:53.594Z,17.85
2023-02-23T11:42:27.665Z,18.40
2023-02-23T11:45:03.844Z,16.13
2023-02-23T11:47:40.335Z,17.65
2023-02-23T11:50:34.125Z,18.83
2023-02-23T11:53:13.877Z,15.38
2023-02-23T11:55:51.424Z,15.07
2023-02-23T11:58:32.183Z,19.05
2023-02-23T12:01:12.375Z,17.70
2023-02-23T12:03:51.875Z,18.40
2023-02-23T12:06:33.187Z,18.92
2023-02-23T12:09:34.919Z,20.17
2023-02-23T12:12:14.008Z,21.35
2023-02-23T12:14:56.462Z,18.52
2023-02-23T12:17:34.253Z,19.40
2023-02-23T12:20:21.872Z,19.05
2023-02-23T12:22:59.429Z,19.60
2023-02-23T12:25:45.595Z,17.45
2023-02-23T12:28:27.848Z,17.88
2023-02-23T12:31:17.844Z,19.00
2023-02-23T12:34:01.281Z,16.38
2023-02-23T12:36:43.419Z,20.42
2023-02-23T12:39:37.256Z,18.27
2023-02-23T12:42:20.530Z,16.98
2023-02-23T12:45:01.823Z,18.63
2023-02-23T12:47:53.636Z,16.00
2023-02-23T12:50:35.825Z,16.33
2023-02-23T12:53:42.909Z,15.13
2023-02-23T12:56:23.494Z,16.40
2023-02-23T12:59:14.343Z,16.40
2023-02-23T13:02:02.911Z,17.95
2023-02-23T13:04:59.116Z,18.98
2023-02-23T13:07:47.423Z,16.40
2023-02-23T13:10:49.991Z,16.80
2023-02-23T13:13:41.047Z,16.58
2023-02-23T13:16:35.487Z,15.18
2023-02-23T13:19:16.712Z,15.63
2023-02-23T13:21:54.580Z,16.08
2023-02-23T13:24:31.838Z,15.98
2023-02-23T13:27:23.309Z,18.25
2023-02-23T13:29:56.796Z,16.63
2023-02-23T13:32:37.876Z,17.63
2023-02-23T13:35:20.446Z,16.92
2023-02-23T13:37:54.655Z,19.80
2023-02-23T13:40:32.566Z,16.98
2023-02-23T13:43:33.466Z,18.77
2023-02-23T13:46:37.427Z,17.00
2023-02-23T13:49:46.460Z,16.90
2023-02-23T13:52:39.806Z,17.45
2023-02-23T13:55:27.312Z,17.92
2023-02-23T13:58:05.351Z,24.27
2023-02-23T14:00:37.525Z,17.70
2023-02-23T14:03:22.684Z,20.65
2023-02-23T14:06:01.391Z,19.73
2023-02-23T14:08:37.350Z,20.70
2023-02-23T14:11:09.633Z,18.35
2023-02-23T14:13:57.325Z,20.05
2023-02-23T14:16:29.722Z,19.00
2023-02-23T14:19:04.214Z,19.90
2023-02-23T14:21:52.308Z,20.95
2023-02-23T14:24:26.024Z,18.02
2023-02-23T14:27:34.086Z,19.63
2023-02-23T14:30:10.430Z,16.17
2023-02-23T14:32:47.660Z,18.33
2023-02-23T14:35:34.591Z,17.50
2023-02-23T14:38:35.968Z,20.00
2023-02-23T14:41:13.926Z,20.23
2023-02-23T14:43:45.980Z,20.95
2023-02-23T14:46:22.877Z,19.77
2023-02-23T14:49:19.280Z,18.67
2023-02-23T14:52:00.186Z,18.75
2023-02-23T14:54:37.919Z,20.00
2023-02-23T14:57:21.633Z,17.45
2023-02-23T15:00:06.840Z,19.95
2023-02-23T15:02:45.831Z,16.80
2023-02-23T15:05:32.693Z,16.55
2023-02-23T15:08:07.382Z,17.30
2023-02-23T15:13:29.251Z,16.58
2023-02-23T15:16:08.966Z,15.63
2023-02-23T15:18:42.960Z,15.80
2023-02-23T15:21:22.712Z,16.48
2023-02-23T15:24:10.913Z,15.13
2023-02-23T15:26:43.766Z,16.45
2023-02-23T15:29:18.907Z,18.63
2023-02-23T15:31:54.282Z,16.05
2023-02-23T15:34:27.921Z,20.70
2023-02-23T15:37:26.418Z,19.30
2023-02-23T15:40:06.071Z,18.08
2023-02-23T15:42:54.163Z,19.95
2023-02-23T15:45:36.137Z,16.38
2023-02-23T15:48:17.245Z,18.45
2023-02-23T15:50:53.331Z,18.73
2023-02-23T15:53:38.468Z,18.02
2023-02-23T15:56:20.247Z,18.13
2023-02-23T15:58:57.157Z,18.20
2023-02-23T16:01:31.242Z,17.05
2023-02-23T16:04:09.408Z,19.05
2023-02-23T16:06:51.125Z,20.27
2023-02-23T16:09:27.596Z,22.35
2023-02-23T16:12:21.786Z,19.58
2023-02-23T16:14:56.825Z,17.70
2023-02-23T16:17:45.315Z,16.80
2023-02-23T16:20:34.826Z,19.55
2023-02-23T16:23:17.651Z,19.10
2023-02-23T16:25:54.257Z,19.85
2023-02-23T16:28:34.200Z,23.50
2023-02-23T16:31:08.424Z,22.00
2023-02-23T16:33:51.068Z,21.90
2023-02-23T16:36:24.855Z,20.75
2023-02-23T16:39:00.060Z,20.55
2023-02-23T16:41:35.647Z,22.42
2023-02-23T16:44:16.226Z,19.48
2023-02-23T16:47:03.471Z,20.05
2023-02-23T16:49:35.317Z,19.98
2023-02-23T16:52:20.057Z,22.58
2023-02-23T16:54:54.596Z,19.73
2023-02-23T16:57:29.594Z,19.70
2023-02-23T17:00:01.381Z,21.85
2023-02-23T17:02:36.170Z,21.30
2023-02-23T17:05:18.927Z,20.83
2023-02-23T17:07:52.089Z,24.73
2023-02-23T17:10:27.385Z,22.70
2023-02-23T17:13:12.759Z,28.00
2023-02-23T17:15:50.615Z,28.00
2023-02-23T17:21:05.249Z,27.20
2023-02-23T17:23:42.432Z,20.50
2023-02-23T17:26:14.828Z,24.35
2023-02-23T17:28:46.739Z,26.00
2023-02-23T17:31:20.564Z,26.23
2023-02-23T17:33:53.654Z,28.45
2023-02-23T17:36:27.514Z,28.80
2023-02-23T17:38:59.833Z,25.70
2023-02-23T17:41:32.411Z,26.15
2023-02-23T17:44:09.822Z,29.02
2023-02-23T17:46:41.697Z,25.38
2023-02-23T17:49:13.467Z,28.60
2023-02-23T17:51:45.251Z,30.05
2023-02-23T17:54:18.132Z,30.15
2023-02-23T17:56:49.919Z,29.05
2023-02-23T17:59:22.109Z,24.90
2023-02-23T18:01:54.104Z,30.13
2023-02-23T18:04:25.927Z,29.55
2023-02-23T18:06:57.880Z,29.42
2023-02-23T18:09:29.611Z,28.13
2023-02-23T18:12:01.407Z,28.85
2023-02-23T18:14:33.531Z,30.48
2023-02-23T18:17:05.411Z,29.25
2023-02-23T18:19:39.800Z,29.05
2023-02-23T18:22:11.576Z,29.70
2023-02-23T18:24:43.624Z,40.03
2023-02-23T18:27:15.333Z,30.27
2023-02-23T18:29:47.176Z,30.23
2023-02-23T18:32:19.398Z,31.17
2023-02-23T18:34:51.361Z,29.25
2023-02-23T18:37:28.986Z,31.10
2023-02-23T18:40:00.761Z,28.65
2023-02-23T18:42:32.496Z,34.20
2023-02-23T18:45:04.686Z,34.75
2023-02-23T18:47:36.623Z,32.63
2023-02-23T18:50:12.739Z,31.95
2023-02-23T18:52:46.734Z,32.40
2023-02-23T18:55:21.585Z,33.95
2023-02-23T18:57:55.317Z,32.55
2023-02-23T19:00:33.805Z,30.83
2023-02-23T19:03:05.760Z,36.10
2023-02-23T19:05:37.939Z,28.48
2023-02-23T19:08:13.546Z,32.60
2023-02-23T19:10:48.846Z,37.35
2023-02-23T19:13:22.316Z,31.65
2023-02-23T19:15:54.394Z,32.15
2023-02-23T19:18:27.566Z,31.77
2023-02-23T19:20:59.335Z,32.05
2023-02-23T19:23:33.862Z,32.00
2023-02-23T19:26:05.745Z,31.15
2023-02-23T19:28:37.634Z,36.70
2023-02-23T19:31:15.934Z,36.25
2023-02-23T19:33:49.481Z,31.02
2023-02-23T19:36:23.614Z,32.75
2023-02-23T19:39:10.526Z,31.65
2023-02-23T19:41:47.888Z,32.92
2023-02-23T19:44:22.405Z,37.90
2023-02-23T19:46:54.236Z,35.70
2023-02-23T19:49:28.026Z,37.58
2023-02-23T19:52:00.784Z,33.70
2023-02-23T19:54:38.018Z,34.92
2023-02-23T19:57:10.059Z,34.70
2023-02-23T19:59:42.074Z,37.53
2023-02-23T20:02:13.844Z,36.65
2023-02-23T20:04:49.669Z,37.20
2023-02-23T20:07:21.594Z,34.65
2023-02-23T20:09:53.495Z,37.88
2023-02-23T20:12:25.181Z,36.67
2023-02-23T20:14:57.772Z,35.72
2023-02-23T20:17:29.581Z,37.30
2023-02-23T20:20:01.996Z,37.17
2023-02-23T20:22:36.452Z,33.75
2023-02-23T20:25:15.532Z,34.83
2023-02-23T20:27:48.926Z,35.22
2023-02-23T20:30:22.145Z,35.08
2023-02-23T20:32:54.747Z,36.58
2023-02-23T20:35:27.745Z,34.25
2023-02-23T20:37:59.661Z,40.33
2023-02-23T20:40:31.446Z,37.30
2023-02-23T20:43:04.280Z,36.22
2023-02-23T20:45:36.156Z,38.60
2023-02-23T20:48:09.695Z,40.10
2023-02-23T20:50:42.447Z,38.28
2023-02-23T20:53:14.165Z,41.22
2023-02-23T20:55:46.306Z,34.58
2023-02-23T20:58:26.153Z,37.17
2023-02-23T21:00:58.163Z,37.15
2023-02-23T21:03:29.878Z,37.90
2023-02-23T21:06:01.680Z,37.15
2023-02-23T21:08:33.397Z,40.72
2023-02-23T21:11:06.405Z,35.17
2023-02-23T21:13:38.086Z,41.35
2023-02-23T21:16:14.803Z,37.72
2023-02-23T21:18:52.602Z,35.85
2023-02-23T21:21:24.313Z,34.58
2023-02-23T21:23:56.011Z,36.10
2023-02-23T21:26:30.506Z,39.22
2023-02-23T21:29:02.858Z,34.65
2023-02-23T21:31:34.721Z,35.42
2023-02-23T21:34:06.774Z,40.47
2023-02-23T21:36:39.171Z,39.63
2023-02-23T21:39:11.203Z,42.35
2023-02-23T21:41:42.869Z,38.22
2023-02-23T21:44:14.599Z,36.80
2023-02-23T21:46:46.381Z,39.40
2023-02-23T21:49:19.214Z,38.20
2023-02-23T21:51:52.572Z,40.33
2023-02-23T21:54:25.229Z,39.30
2023-02-23T21:56:56.976Z,38.65
2023-02-23T21:59:29.043Z,40.88
2023-02-23T22:02:03.823Z,39.63
2023-02-23T22:04:36.933Z,39.92
2023-02-23T22:07:08.901Z,43.28
2023-02-23T22:09:40.615Z,39.38
2023-02-23T22:12:12.414Z,39.33
2023-02-23T22:14:44.123Z,38.58
2023-02-23T22:17:18.950Z,42.00
2023-02-23T22:19:51.969Z,42.47
2023-02-23T22:22:23.763Z,40.40
2023-02-23T22:24:55.429Z,45.75
2023-02-23T22:27:27.225Z,39.50
2023-02-23T22:29:59.614Z,44.53
2023-02-23T22:32:32.983Z,41.78
2023-02-23T22:35:06.544Z,42.08
2023-02-23T22:37:39.194Z,41.30
2023-02-23T22:40:13.505Z,44.55
2023-02-23T22:42:48.434Z,39.97
2023-02-23T22:45:20.444Z,39.00
2023-02-23T22:47:52.268Z,43.22
2023-02-23T22:50:25.145Z,41.58
2023-02-23T22:52:56.854Z,41.58
2023-02-23T22:55:29.534Z,42.25
2023-02-23T22:58:01.604Z,41.50
2023-02-23T23:00:36.291Z,40.72
2023-02-23T23:05:39.847Z,41.60
2023-02-23T23:08:14.255Z,40.25
2023-02-23T23:10:52.144Z,38.83
2023-02-23T23:13:23.949Z,35.20
2023-02-23T23:16:07.560Z,39.47
2023-02-23T23:18:43.301Z,37.55
2023-02-23T23:24:01.170Z,41.38
2023-02-23T23:26:35.424Z,39.00
2023-02-23T23:29:11.367Z,39.83
2023-02-23T23:31:46.695Z,36.33
2023-02-23T23:34:21.678Z,40.50
2023-02-23T23:36:55.173Z,42.10
2023-02-23T23:39:27.558Z,40.45
2023-02-23T23:42:01.793Z,38.88
2023-02-23T23:44:33.873Z,40.58
2023-02-23T23:47:05.717Z,37.15
2023-02-23T23:49:40.854Z,37.83
2023-02-23T23:52:17.777Z,38.45
2023-02-23T23:54:49.913Z,37.97
2023-02-23T23:57:21.605Z,38.03
2023-02-23T23:59:53.753Z,38.20
